Time;durP1;ratioP1;P1;durP2;ratioP2;P2;SDS_P1;SDS_P2;PMS_P1;PMS_P2;Temp;Humidity;BMP_temperature;BMP_pressure;BME280_temperature;BME280_humidity;BME280_pressure;Samples;Min_cycle;Max_cycle;Signal;HPM_P1;HPM_P2
2023/09/27 00:00:01;;;;;;;1.63;1.13;;;22.20;54.40;;;;;;4998734;28;20030;-69
2023/09/27 00:02:27;;;;;;;1.67;1.08;;;22.20;54.30;;;;;;4998129;28;20030;-68
2023/09/27 00:04:53;;;;;;;2.13;1.10;;;22.20;54.30;;;;;;4996885;28;20030;-68
2023/09/27 00:07:18;;;;;;;1.95;1.20;;;22.20;54.30;;;;;;4999469;28;20806;-68
2023/09/27 00:09:44;;;;;;;1.85;1.30;;;22.20;54.30;;;;;;4998435;28;20046;-68
2023/09/27 00:12:10;;;;;;;1.88;1.10;;;22.20;54.30;;;;;;4997931;28;20398;-68
2023/09/27 00:14:36;;;;;;;1.65;1.20;;;22.20;54.30;;;;;;5000352;28;20077;-68
2023/09/27 00:17:01;;;;;;;2.90;1.13;;;22.20;54.30;;;;;;5001067;28;20077;-69
2023/09/27 00:19:27;;;;;;;1.58;1.23;;;22.20;54.30;;;;;;4997609;28;20512;-69
2023/09/27 00:21:53;;;;;;;1.85;1.13;;;22.20;54.30;;;;;;4997011;28;20045;-69
2023/09/27 00:24:19;;;;;;;1.50;1.10;;;22.20;54.30;;;;;;5000981;28;20478;-69
2023/09/27 00:26:44;;;;;;;2.08;1.20;;;22.20;54.30;;;;;;4999713;28;20107;-68
2023/09/27 00:29:10;;;;;;;2.05;1.30;;;22.20;54.30;;;;;;4998174;28;20106;-69
2023/09/27 00:31:35;;;;;;;1.73;1.23;;;22.20;54.30;;;;;;4997596;28;20516;-69
2023/09/27 00:34:01;;;;;;;1.50;1.10;;;22.20;54.30;;;;;;4997009;28;20390;-69
2023/09/27 00:36:27;;;;;;;1.50;1.00;;;22.20;54.30;;;;;;4998069;28;20482;-68
2023/09/27 00:38:52;;;;;;;1.23;1.02;;;22.20;54.30;;;;;;4998725;28;20955;-68
2023/09/27 00:41:18;;;;;;;1.50;1.05;;;22.10;54.30;;;;;;4998559;28;20513;-69
2023/09/27 00:43:43;;;;;;;1.70;1.30;;;22.10;54.20;;;;;;4997234;28;20040;-68
2023/09/27 00:46:14;;;;;;;1.33;1.10;;;22.20;54.30;;;;;;4997266;28;20376;-69
2023/09/27 00:48:40;;;;;;;1.23;0.98;;;22.10;54.30;;;;;;4998372;28;20644;-69
2023/09/27 00:51:06;;;;;;;1.65;1.13;;;22.20;54.30;;;;;;4998538;28;20049;-69
2023/09/27 00:53:36;;;;;;;1.20;1.00;;;22.10;54.20;;;;;;4996939;28;20101;-69
2023/09/27 00:56:02;;;;;;;1.48;1.10;;;22.10;54.20;;;;;;4998727;28;20026;-69
2023/09/27 00:58:32;;;;;;;1.58;1.10;;;22.10;54.20;;;;;;4997160;28;20538;-69
2023/09/27 01:00:58;;;;;;;1.20;1.00;;;22.10;54.20;;;;;;4998526;28;20022;-69
2023/09/27 01:03:24;;;;;;;1.58;1.10;;;22.10;54.20;;;;;;4997884;28;20490;-69
2023/09/27 01:05:50;;;;;;;1.40;1.10;;;22.10;54.20;;;;;;4998419;28;20034;-69
2023/09/27 01:08:15;;;;;;;1.75;1.10;;;22.10;54.20;;;;;;5001081;28;20026;-65
2023/09/27 01:10:41;;;;;;;1.23;1.00;;;22.10;54.20;;;;;;5001222;28;20473;-64
2023/09/27 01:13:07;;;;;;;1.52;1.10;;;22.10;54.20;;;;;;5002753;28;20029;-64
2023/09/27 01:15:33;;;;;;;1.60;1.10;;;22.10;54.20;;;;;;5000100;28;20033;-64
2023/09/27 01:18:00;;;;;;;2.25;1.15;;;22.10;54.20;;;;;;5018052;28;20034;-65
2023/09/27 01:20:28;;;;;;;1.30;1.10;;;22.10;54.20;;;;;;4999827;28;20022;-64
2023/09/27 01:23:05;;;;;;;1.40;1.13;;;22.10;54.20;;;;;;5002095;28;20423;-65
2023/09/27 01:25:32;;;;;;;1.10;0.95;;;22.10;54.20;;;;;;5000496;28;20497;-65
2023/09/27 01:27:59;;;;;;;1.48;1.00;;;22.10;54.20;;;;;;4999579;28;20382;-65
2023/09/27 01:30:25;;;;;;;1.30;1.00;;;22.10;54.20;;;;;;5000521;28;20029;-64
2023/09/27 01:32:51;;;;;;;1.42;1.10;;;22.10;54.20;;;;;;5001378;28;20030;-65
2023/09/27 01:35:17;;;;;;;1.15;1.00;;;22.10;54.20;;;;;;5001921;28;20045;-65
2023/09/27 01:37:43;;;;;;;1.25;1.00;;;22.10;54.20;;;;;;5000844;28;20330;-64
2023/09/27 01:40:17;;;;;;;1.20;0.90;;;22.00;54.10;;;;;;5001986;28;20984;-65
2023/09/27 01:42:43;;;;;;;1.52;1.10;;;22.00;54.20;;;;;;5001656;28;20052;-65
2023/09/27 01:45:12;;;;;;;1.20;1.00;;;22.10;54.20;;;;;;5000343;28;20026;-64
2023/09/27 01:47:38;;;;;;;1.27;1.00;;;22.10;54.20;;;;;;5000994;28;20024;-65
2023/09/27 01:50:06;;;;;;;1.30;1.02;;;22.00;54.10;;;;;;5000515;28;20026;-65
2023/09/27 01:52:32;;;;;;;1.27;1.05;;;22.00;54.10;;;;;;5000240;28;20029;-64
2023/09/27 01:54:58;;;;;;;2.42;1.10;;;22.00;54.10;;;;;;5002871;28;20394;-64
2023/09/27 01:57:23;;;;;;;1.52;1.05;;;22.00;54.10;;;;;;5001059;28;20023;-65
2023/09/27 01:59:49;;;;;;;1.35;0.98;;;22.00;54.20;;;;;;5001156;28;20038;-63
2023/09/27 02:02:15;;;;;;;1.00;0.90;;;22.00;54.20;;;;;;5002564;28;20018;-64
2023/09/27 02:04:40;;;;;;;1.40;1.00;;;22.00;54.20;;;;;;5000769;28;20446;-64
2023/09/27 02:07:06;;;;;;;1.23;1.00;;;22.00;54.20;;;;;;5000514;28;20026;-65
2023/09/27 02:09:32;;;;;;;1.15;0.90;;;22.00;54.20;;;;;;4999543;28;20160;-64
2023/09/27 02:11:57;;;;;;;1.02;0.90;;;22.00;54.20;;;;;;5001754;28;20474;-64
2023/09/27 02:14:23;;;;;;;1.20;1.00;;;22.00;54.20;;;;;;5001013;28;20057;-64
2023/09/27 02:16:49;;;;;;;1.50;1.00;;;22.00;54.10;;;;;;5000652;28;20101;-64
2023/09/27 02:19:14;;;;;;;0.90;0.80;;;22.00;54.10;;;;;;5001208;28;20497;-68
2023/09/27 02:21:40;;;;;;;1.10;0.90;;;22.00;54.20;;;;;;5000629;28;20130;-68
2023/09/27 02:24:07;;;;;;;1.23;1.00;;;22.00;54.20;;;;;;5016235;28;20117;-68
2023/09/27 02:26:33;;;;;;;1.10;1.00;;;22.00;54.20;;;;;;4999489;28;20089;-67
2023/09/27 02:29:00;;;;;;;1.55;1.00;;;22.00;54.20;;;;;;5001670;28;20454;-68
2023/09/27 02:31:25;;;;;;;1.48;1.17;;;22.00;54.20;;;;;;5001410;28;20053;-67
2023/09/27 02:33:51;;;;;;;1.55;1.00;;;22.00;54.20;;;;;;4998244;28;20453;-69
2023/09/27 02:36:17;;;;;;;1.15;0.93;;;22.00;54.20;;;;;;4998203;28;20026;-67
2023/09/27 02:38:43;;;;;;;1.52;0.90;;;22.00;54.20;;;;;;5002804;28;20038;-69
2023/09/27 02:41:08;;;;;;;1.35;1.10;;;21.90;54.20;;;;;;5000564;28;20034;-69
2023/09/27 02:43:34;;;;;;;1.13;0.95;;;21.90;54.10;;;;;;5002570;28;20096;-68
2023/09/27 02:46:00;;;;;;;1.17;0.88;;;22.00;54.70;;;;;;4999234;28;20482;-68
2023/09/27 02:48:26;;;;;;;1.30;0.93;;;21.90;54.10;;;;;;5001272;28;20052;-65
2023/09/27 02:50:55;;;;;;;1.20;1.00;;;21.90;54.10;;;;;;4997464;28;20038;-65
2023/09/27 02:53:21;;;;;;;1.15;0.95;;;21.90;54.10;;;;;;4999906;28;20375;-65
2023/09/27 02:55:47;;;;;;;1.30;1.00;;;21.90;54.10;;;;;;5000696;28;20493;-65
2023/09/27 02:58:13;;;;;;;1.00;0.90;;;21.90;54.20;;;;;;4999166;28;20064;-65
2023/09/27 03:00:40;;;;;;;1.40;1.00;;;21.90;54.10;;;;;;4999709;28;20073;-64
2023/09/27 03:03:07;;;;;;;1.23;1.00;;;21.90;54.20;;;;;;4999555;28;20085;-64
2023/09/27 03:05:36;;;;;;;1.00;0.90;;;21.90;54.10;;;;;;5000748;28;20018;-63
2023/09/27 03:08:03;;;;;;;1.20;1.00;;;21.90;54.10;;;;;;4997905;28;20027;-63
2023/09/27 03:10:28;;;;;;;1.40;1.10;;;21.90;54.20;;;;;;4998572;28;20034;-64
2023/09/27 03:12:58;;;;;;;1.30;0.88;;;21.90;54.10;;;;;;4998195;28;20032;-63
2023/09/27 03:15:24;;;;;;;1.40;1.10;;;21.90;54.20;;;;;;4999389;28;20113;-65
2023/09/27 03:17:49;;;;;;;1.20;1.00;;;21.90;54.10;;;;;;5000009;28;20452;-64
2023/09/27 03:20:19;;;;;;;1.50;1.20;;;21.90;54.10;;;;;;4998715;28;20038;-64
2023/09/27 03:22:48;;;;;;;1.30;0.95;;;21.90;54.20;;;;;;4998392;28;20022;-64
2023/09/27 03:25:14;;;;;;;1.17;0.90;;;21.90;54.10;;;;;;4997453;28;20574;-64
2023/09/27 03:27:39;;;;;;;1.10;0.90;;;21.90;54.20;;;;;;4998981;28;20508;-65
2023/09/27 03:30:06;;;;;;;0.93;0.82;;;21.90;54.20;;;;;;5000647;28;20034;-63
2023/09/27 03:32:32;;;;;;;1.10;0.80;;;21.90;54.10;;;;;;5000407;28;20480;-62
2023/09/27 03:34:59;;;;;;;1.33;0.98;;;21.80;54.10;;;;;;4999761;28;20385;-63
2023/09/27 03:37:24;;;;;;;1.40;1.00;;;21.80;54.10;;;;;;4999081;28;20539;-62
2023/09/27 03:39:52;;;;;;;1.10;0.85;;;21.80;54.10;;;;;;5000214;28;20042;-62
2023/09/27 03:42:19;;;;;;;1.27;0.90;;;21.80;54.10;;;;;;5000102;28;20390;-63
2023/09/27 03:44:45;;;;;;;0.90;0.80;;;21.80;54.20;;;;;;4998115;28;20462;-64
2023/09/27 03:47:11;;;;;;;1.27;1.02;;;21.80;54.10;;;;;;4999856;28;20030;-62
2023/09/27 03:49:37;;;;;;;1.30;1.00;;;21.80;54.10;;;;;;4999294;28;20022;-62
2023/09/27 03:52:03;;;;;;;1.00;0.90;;;21.80;54.10;;;;;;4999886;28;20561;-62
2023/09/27 03:54:29;;;;;;;1.45;1.00;;;21.80;54.10;;;;;;4998867;28;20022;-63
2023/09/27 03:56:55;;;;;;;0.90;0.80;;;21.80;54.20;;;;;;4997230;28;20460;-62
2023/09/27 03:59:20;;;;;;;0.95;0.80;;;21.80;54.10;;;;;;4999943;28;20026;-65
2023/09/27 04:01:46;;;;;;;1.13;1.00;;;21.80;54.20;;;;;;4997691;28;20034;-65
2023/09/27 04:04:12;;;;;;;1.10;0.88;;;21.80;54.10;;;;;;5000112;28;20053;-65
2023/09/27 04:06:38;;;;;;;1.05;0.80;;;21.80;54.10;;;;;;4998233;28;20062;-65
2023/09/27 04:09:05;;;;;;;1.10;0.90;;;21.80;54.20;;;;;;4999109;28;20497;-64
2023/09/27 04:11:31;;;;;;;1.92;0.80;;;21.80;54.20;;;;;;4997465;28;20192;-64
2023/09/27 04:13:56;;;;;;;1.00;0.80;;;21.80;54.10;;;;;;4997845;28;20171;-65
2023/09/27 04:16:23;;;;;;;0.93;0.80;;;21.70;54.10;;;;;;4998557;28;20478;-64
2023/09/27 04:18:48;;;;;;;0.95;0.82;;;21.80;54.10;;;;;;4997740;28;20030;-64
2023/09/27 04:21:14;;;;;;;1.00;0.90;;;21.70;54.10;;;;;;4998269;28;20048;-64
2023/09/27 04:23:41;;;;;;;1.13;1.00;;;21.70;54.10;;;;;;4999048;28;20483;-65
2023/09/27 04:26:09;;;;;;;1.35;0.90;;;21.70;54.10;;;;;;5001032;28;20054;-63
2023/09/27 04:28:37;;;;;;;1.00;0.90;;;21.70;54.10;;;;;;5000018;28;20453;-64
2023/09/27 04:31:03;;;;;;;1.02;0.90;;;21.70;54.20;;;;;;4998014;28;20030;-64
2023/09/27 04:33:29;;;;;;;1.40;0.90;;;21.70;54.20;;;;;;4999153;28;20040;-66
2023/09/27 04:35:55;;;;;;;1.40;1.00;;;21.70;54.20;;;;;;4998136;28;20379;-64
2023/09/27 04:38:21;;;;;;;1.42;1.10;;;21.70;54.20;;;;;;4996874;28;20030;-64
2023/09/27 04:40:46;;;;;;;1.13;0.95;;;21.70;54.20;;;;;;4999775;28;20557;-64
2023/09/27 04:43:12;;;;;;;1.05;0.88;;;21.70;54.20;;;;;;5004063;28;20093;-64
2023/09/27 04:45:38;;;;;;;0.95;0.80;;;21.70;54.20;;;;;;5002754;28;20355;-65
2023/09/27 04:48:05;;;;;;;0.82;0.80;;;21.70;54.20;;;;;;5002547;28;20022;-64
2023/09/27 04:50:30;;;;;;;1.20;0.90;;;21.70;54.20;;;;;;5001922;28;20037;-63
2023/09/27 04:52:56;;;;;;;1.58;0.88;;;21.70;54.20;;;;;;5002246;28;20030;-65
2023/09/27 04:55:22;;;;;;;1.10;0.90;;;21.70;54.20;;;;;;5002602;28;20029;-64
2023/09/27 04:57:47;;;;;;;1.42;1.10;;;21.70;54.30;;;;;;5003455;28;20057;-64
2023/09/27 05:00:19;;;;;;;0.98;0.80;;;21.70;54.30;;;;;;5002178;28;20096;-64
2023/09/27 05:02:46;;;;;;;1.10;0.90;;;21.70;54.30;;;;;;5002682;28;20599;-64
2023/09/27 05:05:11;;;;;;;0.80;0.77;;;21.70;54.30;;;;;;5001056;28;20026;-64
2023/09/27 05:07:37;;;;;;;1.17;0.98;;;21.70;54.30;;;;;;5001470;28;20026;-64
2023/09/27 05:10:03;;;;;;;1.20;1.00;;;21.70;54.30;;;;;;5002202;28;20490;-61
2023/09/27 05:12:29;;;;;;;1.25;1.00;;;21.70;54.40;;;;;;5001407;28;20101;-61
2023/09/27 05:14:58;;;;;;;1.35;1.00;;;21.70;54.40;;;;;;5002060;28;20117;-61
2023/09/27 05:17:24;;;;;;;1.02;0.77;;;21.70;54.40;;;;;;5000464;28;20551;-62
2023/09/27 05:19:50;;;;;;;1.38;1.00;;;21.60;54.30;;;;;;5003061;28;20482;-66
2023/09/27 05:22:19;;;;;;;1.20;0.90;;;21.60;54.30;;;;;;5001080;28;20113;-66
2023/09/27 05:24:45;;;;;;;1.30;1.00;;;21.60;54.80;;;;;;5002205;28;20030;-66
2023/09/27 05:27:11;;;;;;;1.60;1.10;;;21.60;54.30;;;;;;5001288;28;20502;-66
2023/09/27 05:29:36;;;;;;;1.63;1.02;;;21.60;54.30;;;;;;5001955;28;20113;-66
2023/09/27 05:32:02;;;;;;;1.33;1.10;;;21.70;54.40;;;;;;5001268;28;20034;-67
2023/09/27 05:34:30;;;;;;;1.30;0.90;;;21.60;54.30;;;;;;5002479;28;20106;-66
2023/09/27 05:36:56;;;;;;;1.27;1.00;;;21.60;54.30;;;;;;5000838;28;20026;-66
2023/09/27 05:39:22;;;;;;;1.10;0.80;;;21.60;54.30;;;;;;5000399;28;20507;-67
2023/09/27 05:41:48;;;;;;;1.23;1.00;;;21.60;54.30;;;;;;5001863;28;20026;-67
2023/09/27 05:44:13;;;;;;;1.20;0.98;;;21.60;54.30;;;;;;5001782;28;21234;-66
2023/09/27 05:46:40;;;;;;;1.27;0.80;;;21.60;54.30;;;;;;5000780;28;20053;-66
2023/09/27 05:49:09;;;;;;;1.33;1.00;;;21.60;54.30;;;;;;5001486;28;20121;-63
2023/09/27 05:51:35;;;;;;;2.25;1.00;;;21.60;54.40;;;;;;5004545;28;20091;-63
2023/09/27 05:54:01;;;;;;;1.10;0.90;;;21.60;54.30;;;;;;4998983;28;20580;-63
2023/09/27 05:56:27;;;;;;;1.40;0.90;;;21.60;54.40;;;;;;4999305;28;20105;-63
2023/09/27 05:58:53;;;;;;;1.65;1.10;;;21.60;54.40;;;;;;5001416;28;20460;-63
2023/09/27 06:01:19;;;;;;;1.05;0.90;;;21.60;54.40;;;;;;5002583;28;20026;-63
2023/09/27 06:03:49;;;;;;;1.60;1.08;;;21.60;54.40;;;;;;5001561;28;20022;-63
2023/09/27 06:06:14;;;;;;;1.20;0.90;;;21.60;54.40;;;;;;4999585;28;20026;-63
2023/09/27 06:08:41;;;;;;;1.60;1.00;;;21.60;54.40;;;;;;4999632;28;20390;-63
2023/09/27 06:11:07;;;;;;;1.20;0.90;;;21.60;54.40;;;;;;5003280;28;20034;-63
2023/09/27 06:13:33;;;;;;;1.98;1.08;;;21.60;54.40;;;;;;5000347;28;20105;-63
2023/09/27 06:16:00;;;;;;;1.83;1.00;;;21.60;54.40;;;;;;5001363;28;20113;-63
2023/09/27 06:18:26;;;;;;;1.67;0.98;;;21.60;54.40;;;;;;5001524;28;20030;-63
2023/09/27 06:20:52;;;;;;;2.38;1.10;;;21.60;54.40;;;;;;5001014;28;20056;-63
2023/09/27 06:23:19;;;;;;;1.25;1.00;;;21.60;54.50;;;;;;4998784;28;20486;-63
2023/09/27 06:25:46;;;;;;;2.20;1.00;;;21.50;54.40;;;;;;4999485;28;20513;-63
2023/09/27 06:28:15;;;;;;;1.60;1.00;;;21.50;54.40;;;;;;5001259;28;20026;-63
2023/09/27 06:30:41;;;;;;;1.05;0.90;;;21.50;54.40;;;;;;5000495;28;20500;-64
2023/09/27 06:33:08;;;;;;;1.77;1.00;;;21.50;54.40;;;;;;5001038;28;20034;-64
2023/09/27 06:35:36;;;;;;;1.67;1.00;;;21.50;54.90;;;;;;4999087;28;20508;-64
2023/09/27 06:38:02;;;;;;;1.58;0.90;;;21.50;54.40;;;;;;4999292;28;20105;-64
2023/09/27 06:40:29;;;;;;;1.25;0.95;;;21.50;54.40;;;;;;4999675;28;20116;-64
2023/09/27 06:42:55;;;;;;;1.33;1.00;;;21.50;54.40;;;;;;5000494;28;20611;-64
2023/09/27 06:45:22;;;;;;;1.83;1.00;;;21.50;54.40;;;;;;4999732;28;20042;-64
2023/09/27 06:47:48;;;;;;;1.55;1.05;;;21.50;54.90;;;;;;5003233;28;20026;-64
2023/09/27 06:50:16;;;;;;;1.90;1.05;;;21.50;54.40;;;;;;4999266;28;20108;-64
2023/09/27 06:52:45;;;;;;;1.65;1.02;;;21.50;54.40;;;;;;4998502;28;20038;-64
2023/09/27 06:55:11;;;;;;;1.88;1.08;;;21.50;54.40;;;;;;5000511;28;20554;-63
2023/09/27 06:57:38;;;;;;;1.65;1.00;;;21.50;54.40;;;;;;4999077;28;20030;-64
2023/09/27 07:00:24;;;;;;;1.30;1.00;;;21.50;54.40;;;;;;5000401;28;20479;-60
2023/09/27 07:02:50;;;;;;;1.65;1.10;;;21.50;54.40;;;;;;4999249;28;20045;-61
2023/09/27 07:05:17;;;;;;;1.40;1.05;;;21.50;54.50;;;;;;4999524;28;20428;-60
2023/09/27 07:07:44;;;;;;;1.65;1.00;;;21.50;54.50;;;;;;4999719;28;20140;-61
2023/09/27 07:10:09;;;;;;;1.67;1.05;;;21.50;54.50;;;;;;4998215;28;20377;-61
2023/09/27 07:12:36;;;;;;;1.73;1.10;;;21.50;54.50;;;;;;5000255;28;20036;-60
2023/09/27 07:15:12;;;;;;;1.05;0.95;;;21.50;54.50;;;;;;4998570;28;20041;-62
2023/09/27 07:17:38;;;;;;;1.70;1.00;;;21.50;54.50;;;;;;5001025;28;20026;-59
2023/09/27 07:22:56;;;;;;;1.30;1.00;;;21.50;54.50;;;;;;4996051;28;20114;-60
2023/09/27 07:25:23;;;;;;;1.35;0.93;;;21.50;54.50;;;;;;5001162;28;20080;-61
2023/09/27 07:27:49;;;;;;;1.10;0.98;;;21.40;54.50;;;;;;4997237;28;20156;-61
2023/09/27 07:30:18;;;;;;;1.02;0.82;;;21.50;54.60;;;;;;4999620;28;20034;-67
2023/09/27 07:32:47;;;;;;;1.77;1.00;;;21.50;54.60;;;;;;4998847;28;20490;-66
2023/09/27 07:35:17;;;;;;;1.35;0.90;;;21.40;54.50;;;;;;4999596;28;20081;-67
2023/09/27 07:37:47;;;;;;;2.70;0.90;;;21.40;54.50;;;;;;5000287;28;20473;-66
2023/09/27 07:40:14;;;;;;;2.08;1.10;;;21.40;54.50;;;;;;4996257;28;20037;-64
2023/09/27 07:42:44;;;;;;;1.10;0.90;;;21.40;54.50;;;;;;4999696;28;20097;-63
2023/09/27 07:45:33;;;;;;;1.75;0.90;;;21.40;54.50;;;;;;4999782;28;20117;-64
2023/09/27 07:47:59;;;;;;;1.23;0.93;;;21.40;54.50;;;;;;4997423;28;20038;-64
2023/09/27 07:50:27;;;;;;;1.10;1.00;;;21.40;54.50;;;;;;4999442;28;20048;-64
2023/09/27 07:52:54;;;;;;;2.00;1.10;;;21.40;54.50;;;;;;5001234;28;20033;-64
2023/09/27 07:55:21;;;;;;;1.63;1.10;;;21.40;54.50;;;;;;4998384;28;20066;-64
2023/09/27 07:57:49;;;;;;;1.20;0.90;;;21.40;54.50;;;;;;4999506;28;20022;-64
2023/09/27 08:00:15;;;;;;;1.50;1.13;;;21.40;54.50;;;;;;4997576;28;20660;-65
2023/09/27 08:02:45;;;;;;;1.70;1.00;;;21.40;54.50;;;;;;4999136;28;20034;-64
2023/09/27 08:05:11;;;;;;;1.25;1.00;;;21.40;54.50;;;;;;4998782;28;20033;-64
2023/09/27 08:07:40;;;;;;;1.45;0.85;;;21.40;54.50;;;;;;4998742;28;20125;-64
2023/09/27 08:10:07;;;;;;;1.02;0.93;;;21.40;54.60;;;;;;4998323;28;20037;-61
2023/09/27 08:12:34;;;;;;;1.38;1.00;;;21.40;54.60;;;;;;5002133;28;20440;-62
2023/09/27 08:15:01;;;;;;;2.08;1.25;;;21.40;54.60;;;;;;4997949;28;20033;-61
2023/09/27 08:17:27;;;;;;;1.58;1.05;;;21.40;54.60;;;;;;5014353;28;20713;-60
2023/09/27 08:19:52;;;;;;;1.27;1.00;;;21.40;55.10;;;;;;4998690;28;20030;-62
2023/09/27 08:22:19;;;;;;;1.30;0.80;;;21.40;54.60;;;;;;4999203;28;20382;-60
2023/09/27 08:24:44;;;;;;;1.10;0.90;;;21.40;54.60;;;;;;4997037;28;20037;-61
2023/09/27 08:27:11;;;;;;;1.85;1.00;;;21.40;54.60;;;;;;4998692;28;20022;-60
2023/09/27 08:29:36;;;;;;;1.70;1.10;;;21.40;54.60;;;;;;4998196;28;20097;-60
2023/09/27 08:32:02;;;;;;;1.35;1.00;;;21.40;54.60;;;;;;4997551;28;20101;-61
2023/09/27 08:34:28;;;;;;;1.48;1.00;;;21.40;54.60;;;;;;4996444;28;20031;-61
2023/09/27 08:36:53;;;;;;;2.22;1.10;;;21.40;54.60;;;;;;4997858;28;20036;-62
2023/09/27 08:39:19;;;;;;;1.13;0.90;;;21.40;54.60;;;;;;4998299;28;20127;-60
2023/09/27 08:41:45;;;;;;;1.45;1.10;;;21.40;54.60;;;;;;4999123;28;20023;-61
2023/09/27 08:44:13;;;;;;;1.20;0.90;;;21.40;54.70;;;;;;4999526;28;20035;-60
2023/09/27 08:46:40;;;;;;;1.42;1.00;;;21.40;54.60;;;;;;4997900;28;20022;-60
2023/09/27 08:49:08;;;;;;;1.25;0.88;;;21.40;54.70;;;;;;4999573;28;20034;-66
2023/09/27 08:51:36;;;;;;;1.10;1.00;;;21.40;54.60;;;;;;4997750;28;20034;-66
2023/09/27 08:54:02;;;;;;;1.38;1.00;;;21.40;54.60;;;;;;4997822;28;20628;-66
2023/09/27 08:56:29;;;;;;;1.50;1.10;;;21.40;54.70;;;;;;4997638;28;20030;-66
2023/09/27 08:58:56;;;;;;;1.58;1.00;;;21.40;54.70;;;;;;4998290;28;20508;-67
2023/09/27 09:01:22;;;;;;;1.25;0.85;;;21.40;54.60;;;;;;4997228;28;20189;-66
2023/09/27 09:03:48;;;;;;;1.20;1.00;;;21.40;54.70;;;;;;4996156;28;20026;-67
2023/09/27 09:06:16;;;;;;;1.63;1.00;;;21.40;54.70;;;;;;4996186;28;20478;-67
2023/09/27 09:08:42;;;;;;;1.13;1.00;;;21.40;54.70;;;;;;4996700;28;20034;-66
2023/09/27 09:11:16;;;;;;;1.38;1.00;;;21.40;54.70;;;;;;4997139;28;20044;-66
2023/09/27 09:14:04;;;;;;;1.50;0.90;;;21.40;54.70;;;;;;4995314;28;20061;-66
2023/09/27 09:16:47;;;;;;;1.40;1.00;;;21.40;54.70;;;;;;4998647;28;20026;-66
2023/09/27 09:19:25;;;;;;;1.45;0.93;;;21.40;54.70;;;;;;5001187;28;20075;-63
2023/09/27 09:22:08;;;;;;;1.77;1.20;;;21.40;54.70;;;;;;4998382;28;20038;-63
2023/09/27 09:24:41;;;;;;;1.15;1.00;;;21.40;54.70;;;;;;4994678;28;20026;-63
2023/09/27 09:27:12;;;;;;;1.23;0.98;;;21.40;54.70;;;;;;4999590;28;20132;-63
2023/09/27 09:29:49;;;;;;;1.55;1.13;;;21.40;54.70;;;;;;5003021;28;20029;-63
2023/09/27 09:32:25;;;;;;;1.85;1.10;;;21.40;54.70;;;;;;5001992;28;20030;-62
2023/09/27 09:34:54;;;;;;;1.70;1.10;;;21.40;54.70;;;;;;5001178;28;20030;-63
2023/09/27 09:37:33;;;;;;;1.38;0.90;;;21.40;54.70;;;;;;5002133;28;20027;-63
2023/09/27 09:40:14;;;;;;;1.10;0.90;;;21.40;54.70;;;;;;4998981;28;20024;-63
2023/09/27 09:42:41;;;;;;;1.40;1.05;;;21.40;54.80;;;;;;5001187;28;20041;-63
2023/09/27 09:45:10;;;;;;;1.63;1.05;;;21.40;55.30;;;;;;5001940;28;20659;-63
2023/09/27 09:47:43;;;;;;;1.42;1.10;;;21.40;54.80;;;;;;4999451;28;20521;-63
2023/09/27 09:50:16;;;;;;;1.50;1.00;;;21.30;54.70;;;;;;5000323;28;20040;-61
2023/09/27 09:52:48;;;;;;;1.55;1.20;;;21.40;54.80;;;;;;5002048;28;20033;-61
2023/09/27 09:55:19;;;;;;;1.60;1.00;;;21.30;54.80;;;;;;4999339;28;20026;-62
2023/09/27 09:57:46;;;;;;;1.48;0.98;;;21.40;54.80;;;;;;5000829;28;20613;-60
2023/09/27 10:00:25;;;;;;;1.83;1.00;;;21.40;54.80;;;;;;5002095;28;20123;-64
2023/09/27 10:03:02;;;;;;;1.67;1.10;;;21.30;54.80;;;;;;5000770;28;20091;-64
2023/09/27 10:05:37;;;;;;;1.75;1.10;;;21.40;54.80;;;;;;5009715;28;20060;-64
2023/09/27 10:08:07;;;;;;;1.70;1.10;;;21.40;54.90;;;;;;5002136;28;20037;-64
2023/09/27 10:10:34;;;;;;;1.50;0.98;;;21.40;55.10;;;;;;5001092;28;20026;-65
2023/09/27 10:13:05;;;;;;;1.63;1.20;;;21.40;55.00;;;;;;5010132;28;20045;-64
2023/09/27 10:15:33;;;;;;;2.28;1.15;;;21.40;55.10;;;;;;4999781;28;20098;-65
2023/09/27 10:18:37;;;;;;;1.42;1.10;;;21.40;55.10;;;;;;5000335;28;20072;-65
2023/09/27 10:21:03;;;;;;;1.88;1.10;;;21.40;55.20;;;;;;4982478;28;20034;-65
2023/09/27 10:23:43;;;;;;;1.27;1.00;;;21.40;55.10;;;;;;4997850;28;20455;-65
2023/09/27 10:26:22;;;;;;;1.83;1.05;;;21.40;55.10;;;;;;4999663;28;20029;-64
2023/09/27 10:29:03;;;;;;;1.55;1.05;;;21.50;55.20;;;;;;5001710;28;20036;-60
2023/09/27 10:31:33;;;;;;;1.65;1.30;;;21.50;55.20;;;;;;4999477;28;20041;-60
2023/09/27 10:33:59;;;;;;;2.45;1.50;;;21.50;55.10;;;;;;5001074;28;20026;-62
2023/09/27 10:36:25;;;;;;;1.90;1.30;;;21.50;55.10;;;;;;4999968;28;20117;-60
2023/09/27 10:38:50;;;;;;;1.40;1.10;;;21.50;55.10;;;;;;5001142;28;20038;-59
2023/09/27 10:41:38;;;;;;;1.58;1.10;;;21.50;55.00;;;;;;4998402;28;20041;-61
2023/09/27 10:44:04;;;;;;;2.05;1.20;;;21.60;55.10;;;;;;4997853;28;20026;-62
2023/09/27 10:46:43;;;;;;;1.90;1.27;;;21.60;55.10;;;;;;4997964;28;20038;-60
2023/09/27 10:49:09;;;;;;;;;;;21.60;55.10;;;;;;5000092;28;20100;-62
2023/09/27 10:51:35;;;;;;;3.83;1.30;;;21.60;55.20;;;;;;5001105;28;20004;-61
2023/09/27 10:54:08;;;;;;;2.10;1.20;;;21.60;55.20;;;;;;5002270;28;20038;-62
2023/09/27 10:56:42;;;;;;;1.95;1.17;;;21.70;55.20;;;;;;4998700;28;20449;-60
2023/09/27 10:59:08;;;;;;;1.88;1.10;;;21.70;55.10;;;;;;5001279;28;20030;-65
2023/09/27 11:01:35;;;;;;;1.70;1.20;;;21.70;55.10;;;;;;4999930;28;20104;-64
2023/09/27 11:04:03;;;;;;;2.65;1.13;;;21.70;55.20;;;;;;5001155;28;20484;-64
2023/09/27 11:06:31;;;;;;;1.60;1.10;;;21.70;55.10;;;;;;5000690;28;20026;-65
2023/09/27 11:09:12;;;;;;;2.13;1.40;;;21.80;55.10;;;;;;5001546;28;20026;-63
2023/09/27 11:11:44;;;;;;;2.15;1.40;;;21.80;55.10;;;;;;4998793;28;20027;-63
2023/09/27 11:14:09;;;;;;;2.20;1.35;;;21.90;55.10;;;;;;5000922;28;20161;-64
2023/09/27 11:16:35;;;;;;;2.40;1.30;;;21.90;55.00;;;;;;5000947;28;20109;-64
2023/09/27 11:19:02;;;;;;;2.35;1.40;;;21.90;55.00;;;;;;5014517;28;20030;-64
2023/09/27 11:21:28;;;;;;;1.92;1.40;;;21.90;55.00;;;;;;5014876;28;20612;-64
2023/09/27 11:23:58;;;;;;;2.15;1.20;;;21.90;54.90;;;;;;5000002;28;20501;-64
2023/09/27 11:26:24;;;;;;;;;;;21.90;54.90;;;;;;5006863;28;20034;-64
2023/09/27 11:29:03;;;;;;;1.75;1.30;;;21.90;55.00;;;;;;4999599;28;20358;-64
2023/09/27 11:31:34;;;;;;;2.03;1.30;;;22.00;55.00;;;;;;5002144;28;20030;-64
2023/09/27 11:34:19;;;;;;;2.45;1.40;;;22.00;55.00;;;;;;5000453;28;20481;-64
2023/09/27 11:36:49;;;;;;;2.03;1.38;;;22.00;55.00;;;;;;4999270;28;20030;-65
2023/09/27 11:39:16;;;;;;;1.95;1.13;;;22.00;54.80;;;;;;4998935;28;20041;-67
2023/09/27 11:41:46;;;;;;;2.17;1.35;;;22.00;54.80;;;;;;4996596;28;20088;-67
2023/09/27 11:44:16;;;;;;;2.17;1.40;;;22.00;54.90;;;;;;4999510;28;20033;-67
2023/09/27 11:46:42;;;;;;;2.72;1.30;;;22.10;54.90;;;;;;4999220;28;20545;-67
2023/09/27 11:49:08;;;;;;;4.30;1.30;;;22.10;54.80;;;;;;4999836;28;20022;-67
2023/09/27 11:51:35;;;;;;;3.72;1.42;;;22.10;54.90;;;;;;5001505;28;20038;-67
2023/09/27 11:54:02;;;;;;;3.45;1.60;;;22.10;54.90;;;;;;4997135;28;20030;-67
2023/09/27 11:56:27;;;;;;;3.03;1.75;;;22.20;55.00;;;;;;4995032;28;20025;-67
2023/09/27 11:58:53;;;;;;;3.08;1.70;;;22.20;54.90;;;;;;4997004;28;20386;-67
2023/09/27 12:01:19;;;;;;;3.13;1.83;;;22.20;54.90;;;;;;4999958;28;20069;-67
2023/09/27 12:03:45;;;;;;;3.22;1.90;;;22.20;54.80;;;;;;4999401;28;20474;-67
2023/09/27 12:06:11;;;;;;;2.40;1.67;;;22.20;55.30;;;;;;4999000;28;20088;-67
2023/09/27 12:08:36;;;;;;;3.42;1.58;;;22.30;54.80;;;;;;4999370;28;20044;-63
2023/09/27 12:11:03;;;;;;;3.15;1.80;;;22.30;54.70;;;;;;4997260;28;20066;-61
2023/09/27 12:13:29;;;;;;;2.65;1.60;;;22.30;54.70;;;;;;4997931;28;20033;-62
2023/09/27 12:15:54;;;;;;;4.13;2.17;;;22.30;54.70;;;;;;4998612;28;20033;-62
2023/09/27 12:18:20;;;;;;;3.05;1.70;;;22.40;54.70;;;;;;4999644;28;20386;-63
2023/09/27 12:20:47;;;;;;;2.67;1.60;;;22.30;54.70;;;;;;4999199;28;20030;-62
2023/09/27 12:23:13;;;;;;;2.80;1.70;;;22.40;54.70;;;;;;4998401;28;20026;-61
2023/09/27 12:25:39;;;;;;;2.05;1.50;;;22.40;54.60;;;;;;4997460;28;20105;-63
2023/09/27 12:28:04;;;;;;;3.65;1.83;;;22.50;54.60;;;;;;4999117;28;20388;-62
2023/09/27 12:30:30;;;;;;;3.38;1.75;;;22.50;54.60;;;;;;4998038;28;20042;-61
2023/09/27 12:32:56;;;;;;;2.72;1.60;;;22.50;54.60;;;;;;4998648;28;20093;-62
2023/09/27 12:35:22;;;;;;;3.40;1.92;;;22.50;54.60;;;;;;4998927;28;20022;-62
2023/09/27 12:37:48;;;;;;;2.67;1.42;;;22.50;54.50;;;;;;4997934;28;20029;-61
2023/09/27 12:40:14;;;;;;;2.78;1.63;;;22.50;54.50;;;;;;4998912;28;20036;-61
2023/09/27 12:42:40;;;;;;;4.28;2.10;;;22.50;54.60;;;;;;4996991;28;20018;-62
2023/09/27 12:45:07;;;;;;;2.20;1.40;;;22.60;54.70;;;;;;4998710;28;20158;-61
2023/09/27 12:47:33;;;;;;;2.80;1.40;;;22.60;54.70;;;;;;4998157;28;20114;-62
2023/09/27 12:50:02;;;;;;;4.05;1.92;;;22.60;54.70;;;;;;5000409;28;20034;-66
2023/09/27 12:52:28;;;;;;;3.40;1.80;;;22.60;54.60;;;;;;5002325;28;20030;-65